sensor_id;sensor_type;location;lat;lon;timestamp;pressure;altitude;pressure_sealevel;temperature;humidity
79419;BME280;68866;49.902;8.680;'2023-04-06 01:52:32';1004.27;;;0.32;70.02
79419;BME280;68866;49.902;8.680;'2023-04-06 02:02:54';1004.25;;;0.21;70.1
79419;BME280;68866;49.902;8.680;'2023-04-06 02:13:16';1004.2;;;0.17;70.34
79419;BME280;68866;49.902;8.680;'2023-04-06 02:23:38';1004.13;;;0.09;70.26
79419;BME280;68866;49.902;8.680;'2023-04-06 02:34:00';1004.07;;;0.14;71.85
79419;BME280;68866;49.902;8.680;'2023-04-06 02:44:22';1003.9;;;0.09;74.81
79419;BME280;68866;49.902;8.680;'2023-04-06 02:54:45';1003.87;;;-0.01;72.43
79419;BME280;68866;49.902;8.680;'2023-04-06 02:59:56';1003.81;;;-0.04;71.93
79419;BME280;68866;49.902;8.680;'2023-04-06 03:10:24';1003.76;;;-0.1;72.06
79419;BME280;68866;49.902;8.680;'2023-04-06 03:20:46';1003.65;;;-0.21;72.26
79419;BME280;68866;49.902;8.680;'2023-04-06 03:31:09';1003.59;;;-0.29;74.45
79419;BME280;68866;49.902;8.680;'2023-04-06 03:41:31';1003.64;;;-0.42;73.84
79419;BME280;68866;49.902;8.680;'2023-04-06 03:51:53';1003.76;;;-0.51;75.2
79419;BME280;68866;49.902;8.680;'2023-04-06 04:02:15';1003.66;;;-0.62;75.5
79419;BME280;68866;49.902;8.680;'2023-04-06 04:12:37';1003.58;;;-0.7;74.82
79419;BME280;68866;49.902;8.680;'2023-04-06 04:22:59';1003.52;;;-0.85;74.82
79419;BME280;68866;49.902;8.680;'2023-04-06 04:33:21';1003.42;;;-0.9;75.54
79419;BME280;68866;49.902;8.680;'2023-04-06 04:43:43';1003.47;;;-0.99;76.83
79419;BME280;68866;49.902;8.680;'2023-04-06 04:54:05';1003.46;;;-1.06;76.18
79419;BME280;68866;49.902;8.680;'2023-04-06 05:04:28';1003.55;;;-1.12;76.42
79419;BME280;68866;49.902;8.680;'2023-04-06 05:14:50';1003.48;;;-1.17;76.36
79419;BME280;68866;49.902;8.680;'2023-04-06 05:20:03';1003.61;;;-1.27;77.56
79419;BME280;68866;49.902;8.680;'2023-04-06 05:30:25';1003.68;;;-1.3;77.78
79419;BME280;68866;49.902;8.680;'2023-04-06 05:40:47';1003.59;;;-1.37;78.75
79419;BME280;68866;49.902;8.680;'2023-04-06 05:51:09';1003.63;;;-1.42;77.82
79419;BME280;68866;49.902;8.680;'2023-04-06 06:01:31';1003.59;;;-1.51;78.41
79419;BME280;68866;49.902;8.680;'2023-04-06 06:11:53';1003.65;;;-1.53;79.11
79419;BME280;68866;49.902;8.680;'2023-04-06 06:22:15';1003.79;;;-1.64;77.76
79419;BME280;68866;49.902;8.680;'2023-04-06 06:32:37';1003.87;;;-1.68;78.68
79419;BME280;68866;49.902;8.680;'2023-04-06 06:42:59';1003.84;;;-1.72;78.93
79419;BME280;68866;49.902;8.680;'2023-04-06 06:53:21';1003.91;;;-1.71;78.48
79419;BME280;68866;49.902;8.680;'2023-04-06 07:03:43';1003.9;;;-1.67;78.64
79419;BME280;68866;49.902;8.680;'2023-04-06 07:14:07';1003.92;;;-1.65;79.62
79419;BME280;68866;49.902;8.680;'2023-04-06 07:24:29';1003.94;;;-1.57;78.62
79419;BME280;68866;49.902;8.680;'2023-04-06 07:34:51';1004.04;;;-1.41;78.64
79419;BME280;68866;49.902;8.680;'2023-04-06 07:40:04';1004.12;;;-1.3;79.34
79419;BME280;68866;49.902;8.680;'2023-04-06 07:50:27';1004.15;;;-1.05;78.13
79419;BME280;68866;49.902;8.680;'2023-04-06 08:00:48';1004.07;;;-0.54;77.3
79419;BME280;68866;49.902;8.680;'2023-04-06 08:11:10';1003.98;;;0.23;74.54
79419;BME280;68866;49.902;8.680;'2023-04-06 08:21:34';1003.99;;;1.32;72.98
79419;BME280;68866;49.902;8.680;'2023-04-06 08:31:56';1003.88;;;2.56;70.49
79419;BME280;68866;49.902;8.680;'2023-04-06 08:42:18';1003.81;;;3.68;67.17
79419;BME280;68866;49.902;8.680;'2023-04-06 08:52:40';1003.86;;;4.83;62.91
79419;BME280;68866;49.902;8.680;'2023-04-06 09:03:02';1003.84;;;5.94;59.8
79419;BME280;68866;49.902;8.680;'2023-04-06 09:13:24';1003.8;;;6.87;55.22
79419;BME280;68866;49.902;8.680;'2023-04-06 09:23:46';1003.81;;;7.72;53.84
79419;BME280;68866;49.902;8.680;'2023-04-06 09:34:07';1003.79;;;7.95;52.72
79419;BME280;68866;49.902;8.680;'2023-04-06 09:44:29';1003.77;;;7.89;53.27
79419;BME280;68866;49.902;8.680;'2023-04-06 09:54:51';1003.7;;;8.97;51.75
79419;BME280;68866;49.902;8.680;'2023-04-06 10:00:04';1003.64;;;9.67;47.07
79419;BME280;68866;49.902;8.680;'2023-04-06 10:10:25';1003.67;;;10.23;46.5
79419;BME280;68866;49.902;8.680;'2023-04-06 10:20:47';1003.69;;;10.77;45.73
79419;BME280;68866;49.902;8.680;'2023-04-06 10:31:09';1003.64;;;10.75;45.85
79419;BME280;68866;49.902;8.680;'2023-04-06 10:41:35';1003.66;;;10.53;46.35
79419;BME280;68866;49.902;8.680;'2023-04-06 10:51:57';1003.59;;;10.6;47.14
79419;BME280;68866;49.902;8.680;'2023-04-06 11:02:20';1003.52;;;10.65;45.47
79419;BME280;68866;49.902;8.680;'2023-04-06 11:12:42';1003.52;;;10.65;45.28
79419;BME280;68866;49.902;8.680;'2023-04-06 11:23:03';1003.48;;;10.67;45.5
79419;BME280;68866;49.902;8.680;'2023-04-06 11:33:25';1003.43;;;10.69;45.39
79419;BME280;68866;49.902;8.680;'2023-04-06 11:43:47';1003.44;;;10.66;45.48
79419;BME280;68866;49.902;8.680;'2023-04-06 11:54:11';1003.37;;;10.79;45.86
79419;BME280;68866;49.902;8.680;'2023-04-06 12:04:43';1003.3;;;10.91;44.43
79419;BME280;68866;49.902;8.680;'2023-04-06 12:09:55';1003.26;;;11.02;44.06
79419;BME280;68866;49.902;8.680;'2023-04-06 12:20:29';1003.23;;;11.18;44.31
79419;BME280;68866;49.902;8.680;'2023-04-06 12:31:00';1003.17;;;11.24;44.62
79419;BME280;68866;49.902;8.680;'2023-04-06 12:41:35';1003.22;;;11.41;44.82
79419;BME280;68866;49.902;8.680;'2023-04-06 12:52:06';1003.03;;;11.52;44.06
79419;BME280;68866;49.902;8.680;'2023-04-06 13:02:32';1002.84;;;11.67;43.69
79419;BME280;68866;49.902;8.680;'2023-04-06 13:12:58';1002.78;;;11.83;44.07
79419;BME280;68866;49.902;8.680;'2023-04-06 13:23:26';1002.69;;;12.07;43.28
79419;BME280;68866;49.902;8.680;'2023-04-06 13:33:55';1002.61;;;12.16;41.0
79419;BME280;68866;49.902;8.680;'2023-04-06 13:44:31';1002.52;;;12.41;41.06
79419;BME280;68866;49.902;8.680;'2023-04-06 13:54:55';1002.49;;;12.62;41.03
79419;BME280;68866;49.902;8.680;'2023-04-06 14:00:09';1002.39;;;12.96;39.94
79419;BME280;68866;49.902;8.680;'2023-04-06 14:10:32';1002.32;;;13.29;39.87
79419;BME280;68866;49.902;8.680;'2023-04-06 14:20:54';1002.22;;;13.6;38.16
79419;BME280;68866;49.902;8.680;'2023-04-06 14:31:19';1002.18;;;13.71;38.07
79419;BME280;68866;49.902;8.680;'2023-04-06 14:41:41';1002.03;;;13.75;38.11
79419;BME280;68866;49.902;8.680;'2023-04-06 14:52:06';1002.01;;;13.68;36.99
79419;BME280;68866;49.902;8.680;'2023-04-06 15:02:28';1002.04;;;13.85;36.21
79419;BME280;68866;49.902;8.680;'2023-04-06 15:12:49';1001.88;;;13.87;36.11
79419;BME280;68866;49.902;8.680;'2023-04-06 15:23:11';1001.84;;;14.01;37.13
79419;BME280;68866;49.902;8.680;'2023-04-06 15:44:08';1001.83;;;14.07;36.39
79419;BME280;68866;49.902;8.680;'2023-04-06 15:54:32';1001.73;;;14.04;36.98
79419;BME280;68866;49.902;8.680;'2023-04-06 16:04:54';1001.75;;;14.03;37.1
79419;BME280;68866;49.902;8.680;'2023-04-06 16:10:07';1001.71;;;13.97;37.68
79419;BME280;68866;49.902;8.680;'2023-04-06 16:20:31';1001.62;;;13.95;37.11
79419;BME280;68866;49.902;8.680;'2023-04-06 16:30:54';1001.7;;;13.83;37.06
79419;BME280;68866;49.902;8.680;'2023-04-06 16:41:18';1001.58;;;13.71;36.92
79419;BME280;68866;49.902;8.680;'2023-04-06 16:51:39';1001.53;;;13.79;37.18
79419;BME280;68866;49.902;8.680;'2023-04-06 17:02:01';1001.53;;;13.69;37.55
79419;BME280;68866;49.902;8.680;'2023-04-06 17:12:24';1001.45;;;13.74;35.97
79419;BME280;68866;49.902;8.680;'2023-04-06 17:22:48';1001.4;;;13.7;37.85
79419;BME280;68866;49.902;8.680;'2023-04-06 17:33:10';1001.43;;;13.6;37.14
79419;BME280;68866;49.902;8.680;'2023-04-06 17:43:32';1001.46;;;13.52;36.74
79419;BME280;68866;49.902;8.680;'2023-04-06 17:53:53';1001.44;;;13.3;37.2
79419;BME280;68866;49.902;8.680;'2023-04-06 18:04:15';1001.54;;;12.97;37.87
79419;BME280;68866;49.902;8.680;'2023-04-06 18:14:37';1001.55;;;12.73;39.5
79419;BME280;68866;49.902;8.680;'2023-04-06 18:24:59';1001.51;;;12.47;40.73
79419;BME280;68866;49.902;8.680;'2023-04-06 18:30:11';1001.46;;;12.31;41.55
79419;BME280;68866;49.902;8.680;'2023-04-06 18:40:33';1001.62;;;12.22;42.17
79419;BME280;68866;49.902;8.680;'2023-04-06 18:50:55';1001.54;;;12.11;42.63
79419;BME280;68866;49.902;8.680;'2023-04-06 19:01:18';1001.59;;;11.85;43.52
79419;BME280;68866;49.902;8.680;'2023-04-06 19:11:40';1001.59;;;11.71;43.77
79419;BME280;68866;49.902;8.680;'2023-04-06 19:22:01';1001.61;;;11.53;46.0
79419;BME280;68866;49.902;8.680;'2023-04-06 19:32:23';1001.61;;;11.32;47.39
79419;BME280;68866;49.902;8.680;'2023-04-06 19:42:46';1001.76;;;11.13;48.62
79419;BME280;68866;49.902;8.680;'2023-04-06 19:53:08';1001.85;;;10.96;49.64
79419;BME280;68866;49.902;8.680;'2023-04-06 20:03:29';1001.98;;;10.77;49.99
79419;BME280;68866;49.902;8.680;'2023-04-06 20:13:51';1002.06;;;10.67;51.23
79419;BME280;68866;49.902;8.680;'2023-04-06 20:24:13';1002.07;;;10.55;52.03
79419;BME280;68866;49.902;8.680;'2023-04-06 20:34:35';1002.28;;;10.41;54.18
79419;BME280;68866;49.902;8.680;'2023-04-06 20:44:57';1002.4;;;10.26;57.04
79419;BME280;68866;49.902;8.680;'2023-04-06 20:50:09';1002.5;;;10.05;60.41
79419;BME280;68866;49.902;8.680;'2023-04-06 21:00:32';1002.64;;;9.81;64.01
79419;BME280;68866;49.902;8.680;'2023-04-06 21:10:54';1002.7;;;9.7;66.71
79419;BME280;68866;49.902;8.680;'2023-04-06 21:21:16';1002.74;;;9.44;70.27
79419;BME280;68866;49.902;8.680;'2023-04-06 21:31:38';1002.81;;;9.11;73.47
79419;BME280;68866;49.902;8.680;'2023-04-06 21:42:00';1002.84;;;8.9;76.82
79419;BME280;68866;49.902;8.680;'2023-04-06 21:52:22';1002.8;;;8.72;78.04
79419;BME280;68866;49.902;8.680;'2023-04-06 22:02:44';1002.82;;;8.48;79.25
79419;BME280;68866;49.902;8.680;'2023-04-06 22:13:06';1002.9;;;8.25;82.56
79419;BME280;68866;49.902;8.680;'2023-04-06 22:23:29';1002.87;;;8.11;84.02
79419;BME280;68866;49.902;8.680;'2023-04-06 22:33:51';1002.8;;;8.0;85.97
79419;BME280;68866;49.902;8.680;'2023-04-06 22:44:13';1002.79;;;7.82;86.02
79419;BME280;68866;49.902;8.680;'2023-04-06 22:54:35';1002.74;;;7.72;87.83
79419;BME280;68866;49.902;8.680;'2023-04-06 23:04:57';1002.7;;;7.59;88.37
79419;BME280;68866;49.902;8.680;'2023-04-06 23:10:09';1002.59;;;7.53;89.49
79419;BME280;68866;49.902;8.680;'2023-04-06 23:20:31';1002.45;;;7.47;89.38
79419;BME280;68866;49.902;8.680;'2023-04-06 23:30:53';1002.41;;;7.42;90.07
79419;BME280;68866;49.902;8.680;'2023-04-06 23:41:15';1002.25;;;7.38;90.4
79419;BME280;68866;49.902;8.680;'2023-04-06 23:51:37';1002.15;;;7.37;89.76
79419;BME280;68866;49.902;8.680;'2023-04-07 00:01:59';1002.01;;;7.22;89.88
79419;BME280;68866;49.902;8.680;'2023-04-07 00:12:20';1001.91;;;7.16;90.09
79419;BME280;68866;49.902;8.680;'2023-04-07 00:22:42';1001.82;;;7.13;90.69
79419;BME280;68866;49.902;8.680;'2023-04-07 00:33:04';1001.85;;;7.08;91.28
79419;BME280;68866;49.902;8.680;'2023-04-07 00:43:26';1001.76;;;7.07;91.81
79419;BME280;68866;49.902;8.680;'2023-04-07 00:53:49';1001.71;;;7.05;91.99
79419;BME280;68866;49.902;8.680;'2023-04-07 01:04:11';1001.63;;;7.0;92.5
79419;BME280;68866;49.902;8.680;'2023-04-07 01:14:33';1001.56;;;6.97;93.06
79419;BME280;68866;49.902;8.680;'2023-04-07 01:24:55';1001.44;;;6.96;93.1
79419;BME280;68866;49.902;8.680;'2023-04-07 01:30:07';1001.33;;;6.95;93.87
79419;BME280;68866;49.902;8.680;'2023-04-07 01:40:29';1001.29;;;6.97;93.56
